Time;durP1;ratioP1;P1;durP2;ratioP2;P2;SDS_P1;SDS_P2;PMS_P1;PMS_P2;Temp;Humidity;BMP_temperature;BMP_pressure;BME280_temperature;BME280_humidity;BME280_pressure;Samples;Min_cycle;Max_cycle;Signal;HPM_P1;HPM_P2
2022/07/21 00:00:36;;;;;;;12.15;9.57;;;;;;;17.71;100.00;93516.13;2118568;27;20024;-79
2022/07/21 00:01:37;;;;;;;10.77;9.60;;;;;;;17.56;100.00;93513.25;2101462;28;20060;-79
2022/07/21 00:02:38;;;;;;;10.48;9.40;;;;;;;17.50;100.00;93517.78;2101953;28;20180;-81
2022/07/21 00:03:39;;;;;;;12.23;10.00;;;;;;;17.49;100.00;93518.97;2119196;27;20031;-82
2022/07/21 00:04:40;;;;;;;10.77;9.45;;;;;;;17.45;100.00;93518.38;2118345;27;20516;-79
2022/07/21 00:05:41;;;;;;;11.40;10.18;;;;;;;17.45;100.00;93518.38;2118481;27;20047;-81
2022/07/21 00:06:43;;;;;;;11.05;9.95;;;;;;;17.47;100.00;93524.84;2109911;28;20123;-80
2022/07/21 00:07:45;;;;;;;10.98;9.60;;;;;;;17.45;100.00;93529.94;2102146;28;20060;-80
2022/07/21 00:08:46;;;;;;;11.15;10.15;;;;;;;17.43;100.00;93526.16;2101820;28;20044;-81
2022/07/21 00:09:46;;;;;;;10.70;9.60;;;;;;;17.45;100.00;93529.19;2110234;28;20047;-81
2022/07/21 00:10:47;;;;;;;10.88;9.77;;;;;;;17.48;100.00;93531.00;2119540;27;20055;-80
2022/07/21 00:11:48;;;;;;;10.68;9.57;;;;;;;17.41;100.00;93525.88;2110826;28;20049;-80
2022/07/21 00:12:50;;;;;;;12.88;9.90;;;;;;;17.37;100.00;93528.72;2111236;28;20504;-81
2022/07/21 00:13:51;;;;;;;11.73;10.25;;;;;;;17.38;100.00;93527.50;2117337;27;20356;-80
2022/07/21 00:14:52;;;;;;;10.93;9.82;;;;;;;17.42;100.00;93524.66;2122837;27;20063;-79
2022/07/21 00:15:54;;;;;;;11.30;10.20;;;;;;;17.43;100.00;93520.75;2111239;28;20032;-82
2022/07/21 00:16:55;;;;;;;12.05;9.75;;;;;;;17.39;100.00;93523.63;2110688;27;20036;-79
2022/07/21 00:17:56;;;;;;;11.07;9.98;;;;;;;17.39;100.00;93528.28;2127784;27;20736;-79
2022/07/21 00:18:59;;;;;;;12.13;10.05;;;;;;;17.37;100.00;93529.47;2109878;28;20072;-80
2022/07/21 00:20:00;;;;;;;11.93;10.60;;;;;;;17.36;100.00;93527.22;2107262;27;20464;-79
2022/07/21 00:21:02;;;;;;;13.77;10.32;;;;;;;17.37;100.00;93529.47;2119146;27;20072;-82
2022/07/21 00:22:03;;;;;;;11.30;10.15;;;;;;;17.33;100.00;93528.13;2111698;27;20016;-79
2022/07/21 00:23:04;;;;;;;11.15;9.93;;;;;;;17.34;100.00;93524.22;2110957;27;20016;-79
2022/07/21 00:24:05;;;;;;;10.88;9.70;;;;;;;17.43;100.00;93523.47;2110206;28;20024;-79
2022/07/21 00:25:08;;;;;;;11.30;9.55;;;;;;;17.50;100.00;93523.94;2118498;27;20027;-80
2022/07/21 00:26:10;;;;;;;10.80;9.73;;;;;;;17.55;100.00;93517.91;2109777;28;20484;-79
2022/07/21 00:27:11;;;;;;;10.93;9.82;;;;;;;17.51;100.00;93513.88;2101542;28;20029;-81
2022/07/21 00:28:11;;;;;;;11.32;10.27;;;;;;;17.48;100.00;93517.50;2113389;28;20035;-80
2022/07/21 00:29:12;;;;;;;11.73;10.52;;;;;;;17.45;100.00;93523.78;2120206;27;20088;-78
2022/07/21 00:30:14;;;;;;;12.00;10.80;;;;;;;17.45;100.00;93518.38;2109080;28;20110;-79
2022/07/21 00:31:16;;;;;;;11.40;10.35;;;;;;;17.46;100.00;93522.56;2100110;28;20119;-79
2022/07/21 00:32:17;;;;;;;11.10;10.07;;;;;;;17.43;100.00;93523.47;2118485;27;20105;-78
2022/07/21 00:33:18;;;;;;;11.93;10.73;;;;;;;17.43;100.00;93526.16;2118277;27;20027;-78
2022/07/21 00:34:19;;;;;;;12.23;10.98;;;;;;;17.44;100.00;93525.00;2118444;27;20033;-77
2022/07/21 00:35:20;;;;;;;13.02;10.82;;;;;;;17.46;100.00;93525.28;2118334;27;20058;-79
2022/07/21 00:36:22;;;;;;;13.13;10.30;;;;;;;17.51;100.00;93530.81;2115186;27;20023;-78
2022/07/21 00:37:23;;;;;;;13.38;11.98;;;;;;;17.48;100.00;93529.03;2127438;27;20745;-77
2022/07/21 00:38:24;;;;;;;12.10;10.98;;;;;;;17.51;100.00;93530.09;2116903;27;20522;-79
2022/07/21 00:39:25;;;;;;;13.32;11.10;;;;;;;17.55;100.00;93531.44;2118643;27;20077;-76
2022/07/21 00:40:27;;;;;;;12.77;11.10;;;;;;;17.55;100.00;93536.84;2127454;27;20046;-79
2022/07/21 00:41:28;;;;;;;14.32;11.65;;;;;;;17.51;100.00;93538.94;2122875;27;20026;-79
2022/07/21 00:42:31;;;;;;;14.43;12.88;;;;;;;17.51;100.00;93536.22;2126953;27;20022;-81
2022/07/21 00:43:32;;;;;;;13.10;11.80;;;;;;;17.51;100.00;93540.91;2123983;27;20035;-81
2022/07/21 00:44:33;;;;;;;15.65;12.32;;;;;;;17.43;100.00;93543.16;2118321;27;20020;-78
2022/07/21 00:45:34;;;;;;;18.20;12.70;;;;;;;17.35;100.00;93542.69;2101006;28;20055;-78
2022/07/21 00:46:35;;;;;;;12.48;11.35;;;;;;;17.39;100.00;93549.91;2101588;28;20029;-78
2022/07/21 00:47:37;;;;;;;13.90;12.60;;;;;;;17.35;100.00;93541.94;2109312;28;20036;-79
2022/07/21 00:48:38;;;;;;;13.25;12.05;;;;;;;17.29;100.00;93543.72;2101637;28;20024;-77
2022/07/21 00:49:40;;;;;;;15.13;11.93;;;;;;;17.39;100.00;93547.97;2109807;28;20024;-82
2022/07/21 00:50:41;;;;;;;13.65;12.10;;;;;;;17.44;100.00;93535.81;2115892;27;20031;-78
2022/07/21 00:51:42;;;;;;;13.32;11.93;;;;;;;17.46;100.00;93538.78;2122597;27;20070;-79
2022/07/21 00:52:45;;;;;;;14.15;11.48;;;;;;;17.47;100.00;93537.59;2129034;27;20073;-76
2022/07/21 00:53:46;;;;;;;12.75;11.50;;;;;;;17.44;100.00;93536.56;2124255;27;20027;-78
2022/07/21 00:54:47;;;;;;;17.90;12.57;;;;;;;17.42;100.00;93532.78;2127301;27;20051;-79
2022/07/21 00:55:48;;;;;;;14.23;11.65;;;;;;;17.42;100.00;93538.94;2127214;27;20043;-79
2022/07/21 00:56:49;;;;;;;17.58;11.80;;;;;;;17.41;100.00;93540.13;2130222;27;20452;-79
2022/07/21 00:57:52;;;;;;;13.55;12.30;;;;;;;17.37;100.00;93534.88;2117969;27;20027;-78
2022/07/21 00:58:53;;;;;;;13.88;11.73;;;;;;;17.44;100.00;93539.25;2118500;27;20034;-82
2022/07/21 00:59:54;;;;;;;13.65;12.23;;;;;;;17.36;100.00;93530.69;2127199;27;20114;-79
2022/07/21 01:00:55;;;;;;;16.55;12.32;;;;;;;17.41;100.00;93540.13;2109557;28;20080;-78
2022/07/21 01:01:56;;;;;;;13.98;12.27;;;;;;;17.40;100.00;93530.53;2093004;28;20034;-79
2022/07/21 01:02:57;;;;;;;13.80;12.35;;;;;;;17.42;100.00;93530.81;2109767;27;20115;-78
2022/07/21 01:03:59;;;;;;;15.43;12.63;;;;;;;17.32;100.00;93534.72;2114334;27;20476;-80
2022/07/21 01:05:00;;;;;;;16.17;12.95;;;;;;;17.32;100.00;93538.19;2118140;27;20028;-78
2022/07/21 01:06:02;;;;;;;17.77;13.82;;;;;;;17.34;100.00;93545.84;2127238;27;20038;-78
2022/07/21 01:07:04;;;;;;;15.05;13.13;;;;;;;17.31;100.00;93539.38;2127354;27;20072;-77
2022/07/21 01:08:06;;;;;;;14.20;12.60;;;;;;;17.33;100.00;93533.53;2127095;27;20048;-78
2022/07/21 01:09:07;;;;;;;14.63;12.57;;;;;;;17.33;100.00;93542.38;2118106;27;20469;-77
2022/07/21 01:10:09;;;;;;;16.95;13.15;;;;;;;17.29;100.00;93530.22;2109598;28;20027;-78
2022/07/21 01:11:11;;;;;;;13.40;12.07;;;;;;;17.35;100.00;93536.53;2109732;28;20536;-78
2022/07/21 01:12:12;;;;;;;13.32;12.00;;;;;;;17.35;100.00;93528.44;2109759;28;20056;-77
2022/07/21 01:13:13;;;;;;;14.85;12.25;;;;;;;17.41;100.00;93523.94;2117375;27;20019;-78
2022/07/21 01:14:15;;;;;;;13.40;12.10;;;;;;;17.44;100.00;93531.13;2112368;27;20078;-78
2022/07/21 01:15:18;;;;;;;15.55;12.55;;;;;;;17.40;100.00;93535.94;2105076;28;20024;-79
2022/07/21 01:16:19;;;;;;;15.02;13.52;;;;;;;17.34;100.00;93535.78;2117192;27;20071;-77
2022/07/21 01:17:20;;;;;;;14.90;12.80;;;;;;;17.40;100.00;93544.03;2113881;27;20047;-79
2022/07/21 01:18:21;;;;;;;13.98;12.57;;;;;;;17.35;100.00;93544.66;2117082;27;20026;-79
2022/07/21 01:19:22;;;;;;;14.95;13.35;;;;;;;17.35;100.00;93540.00;2113912;28;20048;-79
2022/07/21 01:20:24;;;;;;;16.80;12.85;;;;;;;17.30;100.00;93545.25;2117779;27;20065;-79
2022/07/21 01:21:31;;;;;;;17.35;13.35;;;;;;;17.27;100.00;93535.31;2118452;27;20016;-78
2022/07/21 01:22:34;;;;;;;14.23;12.68;;;;;;;17.24;100.00;93533.50;2111609;27;20032;-78
2022/07/21 01:23:35;;;;;;;14.07;12.73;;;;;;;17.21;100.00;93537.88;2117997;27;20141;-78
2022/07/21 01:24:36;;;;;;;13.80;12.30;;;;;;;17.19;100.00;93536.81;2109904;28;20097;-79
2022/07/21 01:25:37;;;;;;;15.30;12.15;;;;;;;17.15;100.00;93538.91;2100991;28;20514;-80
2022/07/21 01:26:43;;;;;;;14.50;12.80;;;;;;;17.18;100.00;93532.59;2110936;28;20059;-81
2022/07/21 01:27:44;;;;;;;14.55;13.05;;;;;;;17.16;100.00;93541.13;2115476;27;20091;-79
2022/07/21 01:28:45;;;;;;;14.52;12.63;;;;;;;17.23;100.00;93543.56;2118805;27;20368;-78
2022/07/21 01:29:46;;;;;;;16.55;12.73;;;;;;;17.19;100.00;93542.22;2117512;27;20068;-77
2022/07/21 01:30:47;;;;;;;13.32;11.98;;;;;;;17.23;100.00;93540.88;2112096;28;20058;-77
2022/07/21 01:31:49;;;;;;;12.95;11.68;;;;;;;17.27;100.00;93544.19;2112541;28;20028;-78
2022/07/21 01:32:50;;;;;;;13.90;12.40;;;;;;;17.33;100.00;93545.06;2104093;28;20031;-78
2022/07/21 01:33:51;;;;;;;14.10;12.48;;;;;;;17.35;100.00;93541.94;2112012;28;20027;-79
2022/07/21 01:34:52;;;;;;;14.00;12.25;;;;;;;17.32;100.00;93538.19;2119952;27;20019;-78
2022/07/21 01:35:53;;;;;;;14.02;12.60;;;;;;;17.18;100.00;93541.47;2118265;27;20047;-79
2022/07/21 01:36:54;;;;;;;14.15;12.75;;;;;;;17.14;100.00;93540.84;2118607;27;20058;-78
2022/07/21 01:37:57;;;;;;;14.30;12.80;;;;;;;17.19;100.00;93536.81;2113275;28;20028;-78
2022/07/21 01:41:38;;;;;;;16.00;13.68;;;;;;;17.14;100.00;93542.81;2108506;27;20034;-78
2022/07/21 01:42:39;;;;;;;15.80;14.20;;;;;;;17.05;100.00;93535.44;2113218;28;20117;-79
2022/07/21 01:43:40;;;;;;;15.00;12.93;;;;;;;17.09;100.00;93538.75;2116886;27;20031;-78
2022/07/21 01:44:41;;;;;;;15.07;13.50;;;;;;;17.20;100.00;93541.00;2112918;28;20100;-78
2022/07/21 01:45:42;;;;;;;15.05;13.25;;;;;;;17.20;100.00;93544.44;2113151;28;20099;-78
2022/07/21 01:46:46;;;;;;;16.02;14.35;;;;;;;17.21;100.00;93540.56;2109163;28;20023;-82
2022/07/21 01:47:47;;;;;;;15.63;14.00;;;;;;;17.26;100.00;93545.38;2101639;28;20062;-78
2022/07/21 01:48:48;;;;;;;18.00;15.63;;;;;;;17.19;100.00;93550.31;2104408;28;20098;-78
2022/07/21 01:49:49;;;;;;;16.98;14.90;;;;;;;17.14;100.00;93540.09;2104839;28;20032;-81
2022/07/21 01:50:50;;;;;;;19.05;16.27;;;;;;;17.05;100.00;93546.22;2097349;28;20034;-78
2022/07/21 01:51:51;;;;;;;17.02;15.25;;;;;;;17.10;100.00;93545.63;2108624;28;20023;-79
2022/07/21 01:52:54;;;;;;;18.23;14.88;;;;;;;17.13;100.00;93547.47;2117841;27;20391;-83
2022/07/21 01:53:57;;;;;;;16.23;14.60;;;;;;;17.17;100.00;93539.22;2109483;27;20479;-81
2022/07/21 01:54:57;;;;;;;17.70;15.00;;;;;;;17.18;100.00;93538.75;2104931;28;20043;-79
2022/07/21 01:55:58;;;;;;;16.52;14.93;;;;;;;17.18;100.00;93546.13;2104743;28;20020;-80
2022/07/21 01:56:59;;;;;;;17.23;15.52;;;;;;;17.24;100.00;93541.63;2111901;27;20109;-78
2022/07/21 01:58:01;;;;;;;16.33;14.65;;;;;;;17.27;100.00;93544.19;2104412;28;20047;-81
2022/07/21 01:59:03;;;;;;;17.70;15.07;;;;;;;17.24;100.00;93544.31;2113102;28;20361;-79
2022/07/21 02:00:05;;;;;;;17.50;15.55;;;;;;;17.27;100.00;93538.78;2113808;27;20119;-78
2022/07/21 02:01:06;;;;;;;17.63;15.82;;;;;;;17.26;100.00;93531.13;2113681;27;20020;-80
2022/07/21 02:02:07;;;;;;;16.52;14.52;;;;;;;17.26;100.00;93533.81;2113795;27;20798;-80
2022/07/21 02:03:08;;;;;;;17.30;15.20;;;;;;;17.24;100.00;93534.25;2109111;28;20396;-79
2022/07/21 02:04:09;;;;;;;15.75;14.25;;;;;;;17.39;100.00;93545.25;2109234;28;20031;-78
2022/07/21 02:05:10;;;;;;;16.83;15.13;;;;;;;17.35;100.00;93542.69;2119055;27;20117;-78
2022/07/21 02:06:12;;;;;;;17.02;14.88;;;;;;;17.35;100.00;93545.41;2113738;28;20027;-79
2022/07/21 02:07:13;;;;;;;16.90;15.10;;;;;;;17.32;100.00;93545.53;2108210;28;20358;-79
2022/07/21 02:08:14;;;;;;;16.20;14.57;;;;;;;17.31;100.00;93546.75;2112705;28;20048;-78
2022/07/21 02:09:15;;;;;;;16.33;14.63;;;;;;;17.34;100.00;93543.16;2112849;28;20471;-80
2022/07/21 02:10:16;;;;;;;16.90;14.55;;;;;;;17.31;100.00;93533.97;2113105;27;20038;-78
2022/07/21 02:11:18;;;;;;;16.83;14.15;;;;;;;17.33;100.00;93536.22;2113478;28;20043;-78
2022/07/21 02:12:19;;;;;;;16.40;14.68;;;;;;;17.33;100.00;93528.13;2112457;28;20429;-78
2022/07/21 02:13:20;;;;;;;17.17;15.48;;;;;;;17.36;100.00;93524.53;2117032;27;20449;-78
2022/07/21 02:14:21;;;;;;;16.83;14.95;;;;;;;17.25;100.00;93527.69;2105360;28;20124;-78
2022/07/21 02:15:22;;;;;;;16.35;14.68;;;;;;;17.22;100.00;93531.25;2097941;28;20389;-77
2022/07/21 02:16:23;;;;;;;17.85;15.95;;;;;;;17.22;100.00;93535.91;2099788;28;20028;-78
2022/07/21 02:17:24;;;;;;;17.95;16.02;;;;;;;17.14;100.00;93540.09;2105071;28;20140;-79
2022/07/21 02:18:25;;;;;;;16.80;15.02;;;;;;;16.99;100.00;93548.78;2113528;28;20089;-79
2022/07/21 02:19:26;;;;;;;17.13;15.13;;;;;;;17.02;100.00;93552.53;2105015;28;20035;-77
2022/07/21 02:20:27;;;;;;;18.05;14.50;;;;;;;17.07;100.00;93549.97;2117876;27;20368;-79
2022/07/21 02:21:28;;;;;;;16.73;15.02;;;;;;;17.13;100.00;93544.00;2107628;28;20122;-81
2022/07/21 02:22:29;;;;;;;16.30;14.70;;;;;;;17.18;100.00;93543.41;2109517;28;20537;-78
2022/07/21 02:23:31;;;;;;;17.60;15.75;;;;;;;17.16;100.00;93533.03;2114007;28;20024;-77
2022/07/21 02:24:34;;;;;;;16.55;14.90;;;;;;;17.26;100.00;93536.53;2115530;27;20023;-77
2022/07/21 02:25:35;;;;;;;15.73;14.13;;;;;;;17.27;100.00;93535.31;2104724;28;20465;-80
2022/07/21 02:26:36;;;;;;;16.60;14.93;;;;;;;17.32;100.00;93538.19;2107539;28;20027;-78
2022/07/21 02:27:37;;;;;;;16.45;14.38;;;;;;;17.27;100.00;93536.06;2114852;28;20035;-79
2022/07/21 02:28:38;;;;;;;17.23;15.55;;;;;;;17.30;100.00;93531.72;2114106;28;20016;-77
2022/07/21 02:29:39;;;;;;;18.42;15.45;;;;;;;17.19;100.00;93534.84;2104259;28;20141;-80
2022/07/21 02:30:40;;;;;;;16.83;15.15;;;;;;;17.15;100.00;93528.09;2111252;28;20443;-79
2022/07/21 02:31:41;;;;;;;17.60;15.75;;;;;;;17.16;100.00;93530.34;2112956;28;20043;-80
2022/07/21 02:32:42;;;;;;;17.33;14.98;;;;;;;17.16;100.00;93535.75;2108541;28;20027;-78
2022/07/21 02:33:43;;;;;;;17.27;15.45;;;;;;;17.09;100.00;93536.78;2112776;28;20031;-78
2022/07/21 02:34:44;;;;;;;18.23;16.20;;;;;;;17.04;100.00;93539.34;2114414;28;20475;-79
2022/07/21 02:35:45;;;;;;;18.58;15.85;;;;;;;16.93;100.00;93539.75;2112727;28;20027;-78
2022/07/21 02:36:46;;;;;;;17.08;15.32;;;;;;;16.95;100.00;93528.50;2113472;28;20023;-79
2022/07/21 02:37:47;;;;;;;17.70;15.90;;;;;;;16.97;100.00;93528.81;2112991;28;20039;-78
2022/07/21 02:38:50;;;;;;;17.00;14.52;;;;;;;17.06;100.00;93531.53;2112597;28;20043;-76
2022/07/21 02:39:51;;;;;;;17.25;15.43;;;;;;;17.03;100.00;93533.19;2095610;28;20044;-77
2022/07/21 02:40:52;;;;;;;16.42;14.75;;;;;;;17.03;100.00;93530.47;2092625;28;20028;-79
2022/07/21 02:41:53;;;;;;;16.75;14.98;;;;;;;17.02;100.00;93539.00;2117248;28;20443;-79
2022/07/21 02:42:54;;;;;;;17.50;15.73;;;;;;;16.97;100.00;93534.19;2103644;28;20055;-79
2022/07/21 02:43:55;;;;;;;16.65;14.95;;;;;;;17.01;100.00;93530.16;2099137;28;20036;-77
2022/07/21 02:44:56;;;;;;;17.45;15.48;;;;;;;17.02;100.00;93531.66;2108609;28;20019;-78
2022/07/21 02:45:57;;;;;;;20.33;16.15;;;;;;;16.96;100.00;93528.06;2108952;28;20028;-76
2022/07/21 02:46:58;;;;;;;16.20;14.57;;;;;;;16.95;100.00;93537.34;2111753;28;20115;-77
2022/07/21 02:48:06;;;;;;;17.08;15.30;;;;;;;17.01;100.00;93538.25;2113508;28;20123;-77
2022/07/21 02:49:08;;;;;;;17.95;15.35;;;;;;;17.04;100.00;93536.63;2117586;28;20023;-76
2022/07/21 02:50:09;;;;;;;19.05;15.68;;;;;;;17.05;100.00;93535.44;2114411;28;20043;-77
2022/07/21 02:51:10;;;;;;;15.63;14.02;;;;;;;17.06;100.00;93531.53;2113509;28;20076;-77
2022/07/21 02:52:11;;;;;;;17.60;15.13;;;;;;;16.93;100.00;93528.94;2117691;28;20031;-76
2022/07/21 02:53:19;;;;;;;17.83;16.02;;;;;;;16.83;100.00;93533.56;2113620;28;20534;-77
2022/07/21 02:54:19;;;;;;;18.17;15.50;;;;;;;16.88;100.00;93547.69;2112957;28;20051;-76
2022/07/21 02:55:20;;;;;;;21.85;15.65;;;;;;;16.91;100.00;93546.81;2117189;28;20039;-76
2022/07/21 02:56:21;;;;;;;16.45;14.75;;;;;;;16.99;100.00;93548.78;2114075;27;20092;-79
2022/07/21 02:57:22;;;;;;;20.58;16.40;;;;;;;17.01;100.00;93551.78;2118154;28;20316;-77
2022/07/21 02:58:26;;;;;;;19.17;15.57;;;;;;;16.97;100.00;93555.81;2116677;28;20497;-78
2022/07/21 02:59:26;;;;;;;17.70;15.73;;;;;;;16.99;100.00;93546.06;2117314;28;20028;-78
2022/07/21 03:00:27;;;;;;;18.88;15.68;;;;;;;17.04;100.00;93548.19;2113163;28;20162;-76
2022/07/21 03:01:28;;;;;;;17.67;15.75;;;;;;;17.05;100.00;93546.22;2113474;27;20036;-78
2022/07/21 03:02:29;;;;;;;18.10;16.27;;;;;;;17.00;100.00;93525.97;2112003;28;20083;-76
2022/07/21 03:03:33;;;;;;;20.52;17.75;;;;;;;16.94;100.00;93535.09;2112971;28;20098;-78
2022/07/21 03:04:34;;;;;;;17.77;15.90;;;;;;;16.95;100.00;93523.09;2113201;28;20035;-80
2022/07/21 03:05:36;;;;;;;19.10;16.95;;;;;;;16.96;100.00;93528.06;2113460;28;20035;-78
2022/07/21 03:06:37;;;;;;;18.05;16.15;;;;;;;16.93;100.00;93528.94;2112577;28;20030;-77
2022/07/21 03:07:38;;;;;;;20.20;16.23;;;;;;;16.88;100.00;93534.94;2104524;28;20050;-77
2022/07/21 03:08:39;;;;;;;19.17;17.23;;;;;;;16.80;100.00;93536.41;2112727;28;20046;-78
2022/07/21 03:09:40;;;;;;;18.60;16.70;;;;;;;16.76;100.00;93539.22;2114564;28;20104;-78
2022/07/21 03:10:42;;;;;;;18.73;16.70;;;;;;;16.77;100.00;93542.69;2114656;28;20039;-77
2022/07/21 03:11:43;;;;;;;19.50;17.50;;;;;;;16.72;100.00;93545.94;2114659;27;20614;-77
2022/07/21 03:12:44;;;;;;;18.90;17.00;;;;;;;16.72;100.00;93544.00;2114782;28;20055;-77
2022/07/21 03:13:45;;;;;;;20.05;17.25;;;;;;;16.59;100.00;93544.09;2114909;27;20059;-78
2022/07/21 03:14:46;;;;;;;22.13;18.02;;;;;;;16.47;100.00;93555.75;2114495;27;20352;-79
2022/07/21 03:15:47;;;;;;;18.90;16.73;;;;;;;16.44;100.00;93564.72;2109024;27;20036;-78
2022/07/21 03:16:48;;;;;;;19.52;16.90;;;;;;;16.46;100.00;93561.56;2118177;27;20019;-77
2022/07/21 03:17:49;;;;;;;18.10;16.20;;;;;;;16.45;100.00;93558.13;2115166;27;20965;-77
2022/07/21 03:18:50;;;;;;;19.77;17.13;;;;;;;16.37;100.00;93562.25;2114482;27;20036;-77
2022/07/21 03:19:51;;;;;;;18.00;16.10;;;;;;;16.53;100.00;93558.59;2115331;27;20020;-77
2022/07/21 03:20:52;;;;;;;20.08;17.65;;;;;;;16.50;100.00;93567.59;2114787;27;20053;-78
2022/07/21 03:21:53;;;;;;;19.95;16.25;;;;;;;16.56;100.00;93561.19;2115141;27;20037;-78
2022/07/21 03:22:54;;;;;;;20.15;17.40;;;;;;;16.54;100.00;93558.16;2114571;27;20100;-80
2022/07/21 03:23:55;;;;;;;22.20;17.23;;;;;;;16.62;100.00;93572.88;2115998;27;20031;-78
2022/07/21 03:24:56;;;;;;;18.33;16.42;;;;;;;16.59;100.00;93564.94;2114463;27;20039;-77
2022/07/21 03:25:57;;;;;;;19.63;16.45;;;;;;;16.60;100.00;93572.59;2114208;27;20110;-77
2022/07/21 03:26:59;;;;;;;21.05;17.73;;;;;;;16.58;100.00;93564.19;2119643;27;20388;-77
2022/07/21 03:28:00;;;;;;;20.23;17.52;;;;;;;16.70;100.00;93564.53;2122827;27;20031;-78
2022/07/21 03:29:01;;;;;;;18.77;16.88;;;;;;;16.68;100.00;93572.31;2112385;27;20020;-79
2022/07/21 03:30:07;;;;;;;20.25;17.52;;;;;;;16.75;100.00;93562.03;2115283;27;20023;-78
2022/07/21 03:31:08;;;;;;;18.88;17.08;;;;;;;16.68;100.00;93559.59;2114420;27;20547;-78
2022/07/21 03:32:09;;;;;;;19.15;17.00;;;;;;;16.75;100.00;93569.38;2097383;28;20029;-77
2022/07/21 03:33:10;;;;;;;20.73;17.50;;;;;;;16.77;100.00;93567.75;2106099;28;20036;-78
2022/07/21 03:34:11;;;;;;;21.13;18.67;;;;;;;16.71;100.00;93563.34;2115010;27;20472;-77
2022/07/21 03:35:12;;;;;;;19.92;17.90;;;;;;;16.70;100.00;93559.13;2114822;27;20099;-77
2022/07/21 03:36:13;;;;;;;20.20;16.85;;;;;;;16.76;100.00;93568.94;2116555;27;20030;-77
2022/07/21 03:37:14;;;;;;;18.02;16.10;;;;;;;16.94;100.00;93565.53;2107377;28;20020;-78
2022/07/21 03:38:15;;;;;;;20.52;17.73;;;;;;;16.96;100.00;93565.13;2115490;27;20051;-79
2022/07/21 03:39:16;;;;;;;21.13;17.35;;;;;;;16.86;100.00;93565.09;2118585;27;20019;-78
2022/07/21 03:40:22;;;;;;;20.65;17.42;;;;;;;16.96;100.00;93563.16;2099061;28;20043;-78
2022/07/21 03:41:23;;;;;;;20.95;16.92;;;;;;;16.86;100.00;93561.63;2106773;28;20105;-78
2022/07/21 03:42:24;;;;;;;20.35;16.40;;;;;;;16.90;100.00;93559.56;2117436;27;20937;-77
2022/07/21 03:43:25;;;;;;;18.23;16.40;;;;;;;16.90;100.00;93564.19;2117459;27;20562;-77
2022/07/21 03:44:26;;;;;;;19.30;17.10;;;;;;;16.80;100.00;93574.94;2119469;27;20059;-79
2022/07/21 03:45:30;;;;;;;18.90;16.75;;;;;;;16.73;100.00;93572.53;2110702;28;20871;-77
2022/07/21 03:46:30;;;;;;;17.50;15.70;;;;;;;16.75;100.00;93570.13;2114931;27;20043;-77
2022/07/21 03:47:32;;;;;;;19.08;17.02;;;;;;;16.57;100.00;93576.16;2117422;27;20418;-79
2022/07/21 03:48:33;;;;;;;18.55;16.65;;;;;;;16.63;100.00;93570.94;2118267;27;20027;-78
2022/07/21 03:49:34;;;;;;;19.75;16.95;;;;;;;16.63;100.00;93574.38;2116770;27;20461;-79
2022/07/21 03:50:37;;;;;;;19.55;16.63;;;;;;;16.61;100.00;93568.69;2113557;28;20464;-78
2022/07/21 03:51:38;;;;;;;19.20;17.10;;;;;;;16.56;100.00;93566.56;2114350;27;20428;-78
2022/07/21 03:52:40;;;;;;;19.15;16.48;;;;;;;16.54;100.00;93562.81;2118611;27;20031;-79
2022/07/21 03:53:41;;;;;;;22.45;18.05;;;;;;;16.53;100.00;93559.34;2114387;27;20688;-80
2022/07/21 03:54:42;;;;;;;22.35;17.77;;;;;;;16.50;100.00;93554.09;2105943;28;20043;-78
2022/07/21 03:55:43;;;;;;;19.98;17.73;;;;;;;16.45;100.00;93562.75;2105913;28;20040;-77
2022/07/21 03:56:44;;;;;;;21.42;16.35;;;;;;;16.56;100.00;93563.88;2114293;28;20065;-76
2022/07/21 03:57:55;;;;;;;19.77;17.75;;;;;;;16.54;100.00;93570.91;2113444;27;20031;-76
2022/07/21 03:58:56;;;;;;;19.52;17.38;;;;;;;16.49;100.00;93572.22;2107453;28;20416;-76
2022/07/21 03:59:57;;;;;;;18.95;16.95;;;;;;;16.44;100.00;93564.72;2113716;28;20038;-77
2022/07/21 04:00:59;;;;;;;20.58;17.35;;;;;;;16.41;100.00;93562.88;2119161;27;20031;-78
2022/07/21 04:02:00;;;;;;;22.02;16.98;;;;;;;16.42;100.00;93566.34;2114104;27;20112;-76
2022/07/21 04:03:02;;;;;;;19.65;17.13;;;;;;;16.28;100.00;93571.06;2114622;27;20023;-78
2022/07/21 04:04:03;;;;;;;21.02;17.30;;;;;;;16.48;100.00;93578.06;2117671;27;20024;-77
2022/07/21 04:05:05;;;;;;;20.10;17.55;;;;;;;16.32;100.00;93584.41;2115671;27;20023;-79
2022/07/21 04:06:10;;;;;;;20.65;18.45;;;;;;;16.28;100.00;93578.41;2119137;27;20034;-79
2022/07/21 04:07:11;;;;;;;19.13;16.45;;;;;;;16.29;100.00;93580.69;2117251;27;20094;-77
2022/07/21 04:08:13;;;;;;;19.85;17.85;;;;;;;16.26;100.00;93580.81;2116239;27;20027;-78
2022/07/21 04:09:14;;;;;;;19.92;16.35;;;;;;;16.22;100.00;93582.88;2109874;28;20100;-77
2022/07/21 04:10:18;;;;;;;19.42;17.23;;;;;;;16.24;100.00;93583.16;2115922;27;20023;-78
2022/07/21 04:11:19;;;;;;;19.10;17.25;;;;;;;16.16;100.00;93585.38;2119225;27;20076;-79
2022/07/21 04:12:24;;;;;;;18.88;16.90;;;;;;;16.17;100.00;93591.53;2118798;27;20085;-79
2022/07/21 04:13:25;;;;;;;18.83;17.02;;;;;;;16.24;100.00;93586.66;2118794;27;20350;-78
2022/07/21 04:14:26;;;;;;;22.05;17.55;;;;;;;16.33;100.00;93583.22;2124597;27;20110;-77
2022/07/21 04:15:27;;;;;;;18.88;16.88;;;;;;;16.39;100.00;93588.81;2127574;27;20086;-79
2022/07/21 04:16:28;;;;;;;21.80;18.42;;;;;;;16.42;100.00;93580.59;2111419;27;20083;-76
2022/07/21 04:17:29;;;;;;;22.73;18.50;;;;;;;16.47;100.00;93588.13;2105565;28;20570;-77
2022/07/21 04:18:30;;;;;;;21.33;18.77;;;;;;;16.46;100.00;93583.94;2118468;27;20027;-77
2022/07/21 04:19:31;;;;;;;23.90;18.63;;;;;;;16.50;100.00;93587.22;2116202;27;20035;-76
2022/07/21 04:20:32;;;;;;;21.48;17.13;;;;;;;16.59;100.00;93590.00;2117706;27;20032;-77
2022/07/21 04:21:33;;;;;;;22.40;18.02;;;;;;;16.60;100.00;93585.34;2124261;27;20031;-77
2022/07/21 04:22:35;;;;;;;20.42;18.33;;;;;;;16.54;100.00;93584.41;2118284;27;20028;-76
2022/07/21 04:23:36;;;;;;;21.23;18.15;;;;;;;16.50;100.00;93581.06;2117274;27;20415;-77
2022/07/21 04:24:37;;;;;;;19.88;17.77;;;;;;;16.53;100.00;93586.34;2127473;27;20035;-76
2022/07/21 04:25:38;;;;;;;20.73;18.63;;;;;;;16.53;100.00;93585.59;2126976;27;20534;-76
2022/07/21 04:26:39;;;;;;;21.05;17.85;;;;;;;16.55;100.00;93585.91;2122855;27;20027;-77
2022/07/21 04:27:41;;;;;;;22.25;18.55;;;;;;;16.58;100.00;93585.03;2126833;27;20531;-77
2022/07/21 04:28:42;;;;;;;21.52;17.38;;;;;;;16.52;100.00;93582.16;2123056;27;20088;-77
2022/07/21 04:29:43;;;;;;;20.02;17.88;;;;;;;16.57;100.00;93584.28;2123514;27;20038;-76
2022/07/21 04:30:44;;;;;;;21.23;18.65;;;;;;;16.56;100.00;93584.72;2123899;27;20054;-76
2022/07/21 04:31:45;;;;;;;19.38;17.30;;;;;;;16.52;100.00;93578.69;2126400;27;20027;-77
2022/07/21 04:32:49;;;;;;;21.95;18.23;;;;;;;16.49;100.00;93584.97;2124259;27;20046;-76
2022/07/21 04:33:49;;;;;;;21.95;17.95;;;;;;;16.50;100.00;93579.13;2123209;27;20035;-78
2022/07/21 04:34:50;;;;;;;20.65;18.55;;;;;;;16.49;100.00;93588.41;2125765;27;20022;-76
2022/07/21 04:35:51;;;;;;;20.23;18.13;;;;;;;16.50;100.00;93589.91;2118144;27;20027;-78
2022/07/21 04:36:52;;;;;;;19.85;17.75;;;;;;;16.38;100.00;93592.72;2114870;27;20342;-76
2022/07/21 04:37:53;;;;;;;19.77;17.85;;;;;;;16.42;100.00;93596.00;2118394;27;20574;-76
2022/07/21 04:38:54;;;;;;;21.00;18.70;;;;;;;16.39;100.00;93600.38;2109994;28;20334;-80
2022/07/21 04:39:55;;;;;;;20.10;17.67;;;;;;;16.42;100.00;93602.19;2118027;27;20030;-77
2022/07/21 04:40:56;;;;;;;20.13;18.00;;;;;;;16.45;100.00;93593.19;2117222;27;20031;-80
2022/07/21 04:41:57;;;;;;;19.83;17.73;;;;;;;16.45;100.00;93595.88;2109864;28;20028;-78